sensor_id;sensor_type;location;lat;lon;timestamp;pressure;altitude;pressure_sealevel;temperature;humidity
12949;BME280;6539;49.476;8.484;2023-07-13T00:00:38;100414.00;;;22.48;40.89
12949;BME280;6539;49.476;8.484;2023-07-13T00:03:24;100417.47;;;22.43;41.19
12949;BME280;6539;49.476;8.484;2023-07-13T00:06:10;100423.00;;;22.37;41.33
12949;BME280;6539;49.476;8.484;2023-07-13T00:08:59;100420.41;;;22.34;41.35
12949;BME280;6539;49.476;8.484;2023-07-13T00:11:51;100426.19;;;22.30;41.62
12949;BME280;6539;49.476;8.484;2023-07-13T00:14:38;100432.19;;;22.23;41.87
12949;BME280;6539;49.476;8.484;2023-07-13T00:17:24;100431.91;;;22.21;42.11
12949;BME280;6539;49.476;8.484;2023-07-13T00:20:11;100440.75;;;22.20;42.34
12949;BME280;6539;49.476;8.484;2023-07-13T00:22:59;100442.38;;;22.26;42.12
12949;BME280;6539;49.476;8.484;2023-07-13T00:25:48;100440.09;;;22.25;42.20
12949;BME280;6539;49.476;8.484;2023-07-13T00:28:37;100442.78;;;22.19;42.12
12949;BME280;6539;49.476;8.484;2023-07-13T00:31:31;100440.84;;;22.11;42.20
12949;BME280;6539;49.476;8.484;2023-07-13T00:34:19;100429.81;;;22.02;42.51
12949;BME280;6539;49.476;8.484;2023-07-13T00:37:07;100436.56;;;21.95;42.63
12949;BME280;6539;49.476;8.484;2023-07-13T00:39:53;100438.16;;;21.87;42.74
12949;BME280;6539;49.476;8.484;2023-07-13T00:42:43;100429.78;;;21.87;42.83
12949;BME280;6539;49.476;8.484;2023-07-13T00:48:24;100432.78;;;21.83;43.11
12949;BME280;6539;49.476;8.484;2023-07-13T00:51:13;100433.63;;;21.75;43.47
12949;BME280;6539;49.476;8.484;2023-07-13T00:54:07;100436.41;;;21.75;43.29
12949;BME280;6539;49.476;8.484;2023-07-13T00:57:04;100443.72;;;21.72;43.71
12949;BME280;6539;49.476;8.484;2023-07-13T01:00:00;100435.34;;;21.72;43.78
12949;BME280;6539;49.476;8.484;2023-07-13T01:02:52;100433.22;;;21.67;44.13
12949;BME280;6539;49.476;8.484;2023-07-13T01:05:41;100437.28;;;21.66;44.27
12949;BME280;6539;49.476;8.484;2023-07-13T01:08:27;100433.41;;;21.64;44.48
12949;BME280;6539;49.476;8.484;2023-07-13T01:11:20;100433.13;;;21.62;44.34
12949;BME280;6539;49.476;8.484;2023-07-13T01:14:08;100438.63;;;21.56;44.36
12949;BME280;6539;49.476;8.484;2023-07-13T01:16:57;100428.88;;;21.52;44.54
12949;BME280;6539;49.476;8.484;2023-07-13T01:19:48;100435.78;;;21.42;44.40
12949;BME280;6539;49.476;8.484;2023-07-13T01:22:37;100434.91;;;21.36;44.54
12949;BME280;6539;49.476;8.484;2023-07-13T01:25:25;100430.94;;;21.27;44.71
12949;BME280;6539;49.476;8.484;2023-07-13T01:28:11;100437.94;;;21.23;45.10
12949;BME280;6539;49.476;8.484;2023-07-13T01:31:03;100440.25;;;21.24;44.96
12949;BME280;6539;49.476;8.484;2023-07-13T01:33:53;100448.19;;;21.26;45.04
12949;BME280;6539;49.476;8.484;2023-07-13T01:36:39;100452.78;;;21.29;45.05
12949;BME280;6539;49.476;8.484;2023-07-13T01:39:25;100453.56;;;21.30;44.92
12949;BME280;6539;49.476;8.484;2023-07-13T01:42:11;100449.53;;;21.31;45.09
12949;BME280;6539;49.476;8.484;2023-07-13T01:45:02;100453.00;;;21.25;45.12
12949;BME280;6539;49.476;8.484;2023-07-13T01:47:49;100451.44;;;21.24;45.24
12949;BME280;6539;49.476;8.484;2023-07-13T01:50:35;100452.41;;;21.21;45.72
12949;BME280;6539;49.476;8.484;2023-07-13T01:53:21;100458.44;;;21.20;45.50
12949;BME280;6539;49.476;8.484;2023-07-13T01:56:07;100463.44;;;21.16;45.29
12949;BME280;6539;49.476;8.484;2023-07-13T01:58:53;100478.53;;;21.09;45.29
12949;BME280;6539;49.476;8.484;2023-07-13T02:01:41;100468.50;;;21.03;45.42
12949;BME280;6539;49.476;8.484;2023-07-13T02:04:27;100471.28;;;21.03;45.58
12949;BME280;6539;49.476;8.484;2023-07-13T02:07:14;100479.03;;;20.99;45.59
12949;BME280;6539;49.476;8.484;2023-07-13T02:10:03;100469.59;;;20.96;45.37
12949;BME280;6539;49.476;8.484;2023-07-13T02:12:54;100471.50;;;20.90;45.61
12949;BME280;6539;49.476;8.484;2023-07-13T02:15:40;100467.31;;;20.86;45.91
12949;BME280;6539;49.476;8.484;2023-07-13T02:18:27;100476.78;;;20.88;45.80
12949;BME280;6539;49.476;8.484;2023-07-13T02:21:13;100474.16;;;20.85;45.99
12949;BME280;6539;49.476;8.484;2023-07-13T02:23:59;100480.53;;;20.85;46.16
12949;BME280;6539;49.476;8.484;2023-07-13T02:26:48;100483.66;;;20.78;46.09
12949;BME280;6539;49.476;8.484;2023-07-13T02:29:34;100480.56;;;20.76;46.24
12949;BME280;6539;49.476;8.484;2023-07-13T02:32:21;100492.38;;;20.71;46.63
12949;BME280;6539;49.476;8.484;2023-07-13T02:35:09;100479.06;;;20.66;46.62
12949;BME280;6539;49.476;8.484;2023-07-13T02:37:57;100475.22;;;20.64;47.20
12949;BME280;6539;49.476;8.484;2023-07-13T02:40:43;100477.22;;;20.63;47.13
12949;BME280;6539;49.476;8.484;2023-07-13T02:43:32;100482.50;;;20.61;46.91
12949;BME280;6539;49.476;8.484;2023-07-13T02:46:18;100485.63;;;20.54;46.94
12949;BME280;6539;49.476;8.484;2023-07-13T02:49:06;100482.53;;;20.52;47.03
12949;BME280;6539;49.476;8.484;2023-07-13T02:51:54;100475.41;;;20.51;47.13
12949;BME280;6539;49.476;8.484;2023-07-13T02:54:43;100480.38;;;20.47;47.26
12949;BME280;6539;49.476;8.484;2023-07-13T02:57:31;100478.84;;;20.46;47.45
12949;BME280;6539;49.476;8.484;2023-07-13T03:00:18;100476.06;;;20.46;47.92
12949;BME280;6539;49.476;8.484;2023-07-13T03:03:07;100481.50;;;20.40;48.21
12949;BME280;6539;49.476;8.484;2023-07-13T03:06:03;100483.69;;;20.36;47.88
12949;BME280;6539;49.476;8.484;2023-07-13T03:08:51;100484.16;;;20.35;48.19
12949;BME280;6539;49.476;8.484;2023-07-13T03:11:36;100482.28;;;20.32;48.56
12949;BME280;6539;49.476;8.484;2023-07-13T03:14:23;100491.31;;;20.27;48.48
12949;BME280;6539;49.476;8.484;2023-07-13T03:17:09;100480.91;;;20.27;48.82
12949;BME280;6539;49.476;8.484;2023-07-13T03:19:57;100491.63;;;20.29;48.83
12949;BME280;6539;49.476;8.484;2023-07-13T03:22:48;100475.81;;;20.26;48.80
12949;BME280;6539;49.476;8.484;2023-07-13T03:25:36;100491.00;;;20.25;49.08
12949;BME280;6539;49.476;8.484;2023-07-13T03:28:25;100482.16;;;20.17;49.20
12949;BME280;6539;49.476;8.484;2023-07-13T03:31:18;100481.72;;;20.10;49.41
12949;BME280;6539;49.476;8.484;2023-07-13T03:34:04;100483.25;;;20.11;49.55
12949;BME280;6539;49.476;8.484;2023-07-13T03:36:54;100487.31;;;20.10;49.95
12949;BME280;6539;49.476;8.484;2023-07-13T03:39:40;100482.06;;;20.03;50.43
12949;BME280;6539;49.476;8.484;2023-07-13T03:42:31;100481.56;;;20.04;50.68
12949;BME280;6539;49.476;8.484;2023-07-13T03:45:17;100487.31;;;20.10;50.62
12949;BME280;6539;49.476;8.484;2023-07-13T03:48:04;100496.72;;;20.12;50.61
12949;BME280;6539;49.476;8.484;2023-07-13T03:50:52;100510.97;;;20.14;51.03
12949;BME280;6539;49.476;8.484;2023-07-13T03:53:40;100502.31;;;20.12;51.19
12949;BME280;6539;49.476;8.484;2023-07-13T03:56:32;100504.31;;;20.21;50.94
12949;BME280;6539;49.476;8.484;2023-07-13T03:59:18;100513.44;;;20.30;50.81
12949;BME280;6539;49.476;8.484;2023-07-13T04:02:07;100510.47;;;20.34;50.76
12949;BME280;6539;49.476;8.484;2023-07-13T04:04:53;100509.44;;;20.31;50.79
12949;BME280;6539;49.476;8.484;2023-07-13T04:07:41;100510.34;;;20.28;50.84
12949;BME280;6539;49.476;8.484;2023-07-13T04:10:27;100521.69;;;20.25;50.82
12949;BME280;6539;49.476;8.484;2023-07-13T04:13:13;100519.97;;;20.18;51.22
12949;BME280;6539;49.476;8.484;2023-07-13T04:16:00;100524.75;;;20.18;51.53
12949;BME280;6539;49.476;8.484;2023-07-13T04:18:48;100521.06;;;20.21;51.25
12949;BME280;6539;49.476;8.484;2023-07-13T04:21:34;100519.94;;;20.27;51.30
12949;BME280;6539;49.476;8.484;2023-07-13T04:24:20;100519.44;;;20.38;51.08
12949;BME280;6539;49.476;8.484;2023-07-13T04:27:06;100523.94;;;20.44;51.06
12949;BME280;6539;49.476;8.484;2023-07-13T04:29:57;100523.50;;;20.37;50.19
12949;BME280;6539;49.476;8.484;2023-07-13T04:32:43;100533.59;;;20.25;51.26
12949;BME280;6539;49.476;8.484;2023-07-13T04:35:34;100528.78;;;20.26;51.67
12949;BME280;6539;49.476;8.484;2023-07-13T04:38:28;100529.41;;;20.30;51.79
12949;BME280;6539;49.476;8.484;2023-07-13T04:41:15;100533.41;;;20.38;51.83
12949;BME280;6539;49.476;8.484;2023-07-13T04:44:01;100534.34;;;20.44;52.19
12949;BME280;6539;49.476;8.484;2023-07-13T04:46:48;100535.81;;;20.63;51.93
12949;BME280;6539;49.476;8.484;2023-07-13T04:49:37;100537.47;;;20.79;51.34
12949;BME280;6539;49.476;8.484;2023-07-13T04:52:24;100542.84;;;20.91;50.73
12949;BME280;6539;49.476;8.484;2023-07-13T04:55:10;100544.06;;;20.90;50.73
12949;BME280;6539;49.476;8.484;2023-07-13T04:58:03;100548.41;;;20.91;50.89
12949;BME280;6539;49.476;8.484;2023-07-13T05:00:49;100546.06;;;20.90;51.04
12949;BME280;6539;49.476;8.484;2023-07-13T05:03:35;100539.44;;;20.87;50.86
12949;BME280;6539;49.476;8.484;2023-07-13T05:06:21;100552.63;;;20.87;50.84
12949;BME280;6539;49.476;8.484;2023-07-13T05:09:07;100547.81;;;20.87;50.58
12949;BME280;6539;49.476;8.484;2023-07-13T05:11:58;100544.84;;;20.91;50.69
12949;BME280;6539;49.476;8.484;2023-07-13T05:14:44;100552.28;;;20.94;50.61
12949;BME280;6539;49.476;8.484;2023-07-13T05:17:30;100559.88;;;20.93;50.70
12949;BME280;6539;49.476;8.484;2023-07-13T05:20:18;100562.78;;;20.99;50.76
12949;BME280;6539;49.476;8.484;2023-07-13T05:23:04;100566.25;;;20.94;51.39
12949;BME280;6539;49.476;8.484;2023-07-13T05:25:52;100566.38;;;20.90;51.60
12949;BME280;6539;49.476;8.484;2023-07-13T05:28:44;100573.53;;;20.91;51.92
12949;BME280;6539;49.476;8.484;2023-07-13T05:31:30;100572.94;;;20.87;51.18
12949;BME280;6539;49.476;8.484;2023-07-13T05:34:16;100563.13;;;20.92;50.16
12949;BME280;6539;49.476;8.484;2023-07-13T05:37:05;100570.00;;;20.82;48.98
12949;BME280;6539;49.476;8.484;2023-07-13T05:39:55;100575.59;;;20.73;48.79
12949;BME280;6539;49.476;8.484;2023-07-13T05:42:44;100571.59;;;20.74;49.55
12949;BME280;6539;49.476;8.484;2023-07-13T05:45:32;100573.25;;;20.80;49.05
12949;BME280;6539;49.476;8.484;2023-07-13T05:48:19;100568.75;;;20.83;48.77
12949;BME280;6539;49.476;8.484;2023-07-13T05:51:07;100582.72;;;20.83;48.97
12949;BME280;6539;49.476;8.484;2023-07-13T05:53:58;100584.41;;;20.89;49.47
12949;BME280;6539;49.476;8.484;2023-07-13T05:56:44;100590.13;;;20.86;49.51
12949;BME280;6539;49.476;8.484;2023-07-13T05:59:30;100578.22;;;20.85;49.56
12949;BME280;6539;49.476;8.484;2023-07-13T06:02:16;100588.91;;;20.87;49.36
12949;BME280;6539;49.476;8.484;2023-07-13T06:05:02;100587.69;;;20.79;49.51
12949;BME280;6539;49.476;8.484;2023-07-13T06:07:48;100591.91;;;20.74;49.02
12949;BME280;6539;49.476;8.484;2023-07-13T06:10:37;100592.22;;;20.67;48.84
12949;BME280;6539;49.476;8.484;2023-07-13T06:13:23;100595.78;;;20.68;49.00
12949;BME280;6539;49.476;8.484;2023-07-13T06:16:12;100601.19;;;20.71;47.59
12949;BME280;6539;49.476;8.484;2023-07-13T06:18:58;100610.47;;;20.77;46.97
12949;BME280;6539;49.476;8.484;2023-07-13T06:21:47;100610.44;;;20.86;47.09
12949;BME280;6539;49.476;8.484;2023-07-13T06:24:35;100613.66;;;21.03;45.91
12949;BME280;6539;49.476;8.484;2023-07-13T06:27:21;100622.50;;;21.10;45.87
12949;BME280;6539;49.476;8.484;2023-07-13T06:30:08;100628.63;;;21.23;44.99
12949;BME280;6539;49.476;8.484;2023-07-13T06:32:54;100620.38;;;21.29;44.81
12949;BME280;6539;49.476;8.484;2023-07-13T06:35:40;100615.63;;;21.44;44.39
12949;BME280;6539;49.476;8.484;2023-07-13T06:38:26;100620.53;;;21.58;43.88
12949;BME280;6539;49.476;8.484;2023-07-13T06:41:12;100621.38;;;21.73;43.46
12949;BME280;6539;49.476;8.484;2023-07-13T06:44:03;100622.38;;;21.85;42.76
12949;BME280;6539;49.476;8.484;2023-07-13T06:46:51;100629.81;;;21.88;42.57
12949;BME280;6539;49.476;8.484;2023-07-13T06:49:40;100632.78;;;22.08;43.05
12949;BME280;6539;49.476;8.484;2023-07-13T06:52:25;100633.66;;;22.14;42.27
12949;BME280;6539;49.476;8.484;2023-07-13T06:55:12;100636.16;;;22.12;41.69
12949;BME280;6539;49.476;8.484;2023-07-13T06:57:58;100636.75;;;22.16;42.65
12949;BME280;6539;49.476;8.484;2023-07-13T07:00:44;100638.19;;;22.26;41.58
12949;BME280;6539;49.476;8.484;2023-07-13T07:03:30;100640.44;;;22.37;41.22
12949;BME280;6539;49.476;8.484;2023-07-13T07:06:23;100632.91;;;22.43;40.25
12949;BME280;6539;49.476;8.484;2023-07-13T07:09:09;100643.94;;;22.46;40.19
12949;BME280;6539;49.476;8.484;2023-07-13T07:11:56;100641.44;;;22.48;40.58
12949;BME280;6539;49.476;8.484;2023-07-13T07:14:42;100642.38;;;22.45;40.34
12949;BME280;6539;49.476;8.484;2023-07-13T07:17:28;100640.66;;;22.48;40.41
12949;BME280;6539;49.476;8.484;2023-07-13T07:20:16;100647.25;;;22.59;40.96
12949;BME280;6539;49.476;8.484;2023-07-13T07:23:05;100645.13;;;22.69;40.62
12949;BME280;6539;49.476;8.484;2023-07-13T07:25:51;100652.28;;;22.85;40.41
12949;BME280;6539;49.476;8.484;2023-07-13T07:28:37;100656.53;;;22.80;40.16
12949;BME280;6539;49.476;8.484;2023-07-13T07:31:23;100648.69;;;22.69;40.81
12949;BME280;6539;49.476;8.484;2023-07-13T07:34:09;100652.06;;;22.73;40.75
12949;BME280;6539;49.476;8.484;2023-07-13T07:37:00;100646.09;;;22.81;40.74
12949;BME280;6539;49.476;8.484;2023-07-13T07:39:49;100649.19;;;22.83;40.47
12949;BME280;6539;49.476;8.484;2023-07-13T07:42:35;100654.97;;;22.94;40.55
12949;BME280;6539;49.476;8.484;2023-07-13T07:45:21;100656.72;;;22.91;40.50
12949;BME280;6539;49.476;8.484;2023-07-13T07:48:08;100654.56;;;22.86;40.70
12949;BME280;6539;49.476;8.484;2023-07-13T07:50:57;100649.75;;;23.01;40.78
12949;BME280;6539;49.476;8.484;2023-07-13T07:53:43;100646.06;;;23.10;40.54
12949;BME280;6539;49.476;8.484;2023-07-13T07:56:30;100655.94;;;23.05;40.19
12949;BME280;6539;49.476;8.484;2023-07-13T07:59:16;100660.94;;;23.01;40.77
12949;BME280;6539;49.476;8.484;2023-07-13T08:02:02;100651.50;;;22.99;40.25
12949;BME280;6539;49.476;8.484;2023-07-13T08:04:48;100651.88;;;23.06;41.25
12949;BME280;6539;49.476;8.484;2023-07-13T08:07:36;100653.00;;;23.14;40.84
12949;BME280;6539;49.476;8.484;2023-07-13T08:10:22;100651.94;;;23.26;39.46
12949;BME280;6539;49.476;8.484;2023-07-13T08:13:08;100651.72;;;23.30;40.24
12949;BME280;6539;49.476;8.484;2023-07-13T08:15:54;100658.50;;;23.38;40.08
12949;BME280;6539;49.476;8.484;2023-07-13T08:18:43;100658.38;;;23.47;39.80
12949;BME280;6539;49.476;8.484;2023-07-13T08:21:29;100650.66;;;23.42;39.93
12949;BME280;6539;49.476;8.484;2023-07-13T08:24:17;100651.75;;;23.15;39.65
12949;BME280;6539;49.476;8.484;2023-07-13T08:27:06;100656.13;;;23.02;40.36
12949;BME280;6539;49.476;8.484;2023-07-13T08:29:53;100656.97;;;23.08;40.22
12949;BME280;6539;49.476;8.484;2023-07-13T08:32:39;100648.75;;;23.19;39.95
12949;BME280;6539;49.476;8.484;2023-07-13T08:35:28;100643.31;;;23.44;39.85
12949;BME280;6539;49.476;8.484;2023-07-13T08:38:19;100646.78;;;23.74;39.46
12949;BME280;6539;49.476;8.484;2023-07-13T08:41:18;100652.94;;;23.98;38.54
12949;BME280;6539;49.476;8.484;2023-07-13T08:44:20;100637.50;;;24.29;38.36
12949;BME280;6539;49.476;8.484;2023-07-13T08:47:15;100639.78;;;24.50;38.07
12949;BME280;6539;49.476;8.484;2023-07-13T08:50:08;100642.84;;;24.52;37.57
12949;BME280;6539;49.476;8.484;2023-07-13T08:53:00;100644.34;;;24.48;38.21
12949;BME280;6539;49.476;8.484;2023-07-13T08:55:59;100646.00;;;24.60;37.92
12949;BME280;6539;49.476;8.484;2023-07-13T08:58:54;100642.94;;;24.32;37.64
12949;BME280;6539;49.476;8.484;2023-07-13T09:11:52;100638.84;;;24.59;37.24
12949;BME280;6539;49.476;8.484;2023-07-13T09:14:48;100645.22;;;24.79;36.82
12949;BME280;6539;49.476;8.484;2023-07-13T09:17:46;100639.50;;;24.74;36.41
12949;BME280;6539;49.476;8.484;2023-07-13T09:20:52;100633.88;;;24.74;36.63
12949;BME280;6539;49.476;8.484;2023-07-13T09:23:40;100624.22;;;24.75;36.61
12949;BME280;6539;49.476;8.484;2023-07-13T09:26:34;100628.22;;;24.94;36.17
12949;BME280;6539;49.476;8.484;2023-07-13T09:29:29;100625.94;;;24.98;35.65
12949;BME280;6539;49.476;8.484;2023-07-13T09:32:21;100648.16;;;24.96;35.53
12949;BME280;6539;49.476;8.484;2023-07-13T09:35:16;100630.25;;;24.68;36.08
12949;BME280;6539;49.476;8.484;2023-07-13T09:44:34;100629.66;;;24.84;36.52
12949;BME280;6539;49.476;8.484;2023-07-13T09:47:29;100631.19;;;25.16;35.71
12949;BME280;6539;49.476;8.484;2023-07-13T09:50:16;100630.03;;;24.97;34.99
12949;BME280;6539;49.476;8.484;2023-07-13T09:53:03;100633.38;;;25.01;35.53
12949;BME280;6539;49.476;8.484;2023-07-13T09:55:49;100633.06;;;25.30;35.04
12949;BME280;6539;49.476;8.484;2023-07-13T09:58:35;100631.91;;;25.42;34.96
12949;BME280;6539;49.476;8.484;2023-07-13T10:01:37;100624.00;;;25.46;34.87
12949;BME280;6539;49.476;8.484;2023-07-13T10:04:34;100625.78;;;25.44;35.02
12949;BME280;6539;49.476;8.484;2023-07-13T10:07:25;100638.13;;;25.21;34.89
12949;BME280;6539;49.476;8.484;2023-07-13T10:10:21;100637.34;;;25.20;34.93
12949;BME280;6539;49.476;8.484;2023-07-13T10:16:15;100635.66;;;24.97;34.88
12949;BME280;6539;49.476;8.484;2023-07-13T10:19:19;100640.50;;;24.71;35.23
12949;BME280;6539;49.476;8.484;2023-07-13T10:22:36;100647.00;;;24.57;35.05
12949;BME280;6539;49.476;8.484;2023-07-13T10:25:30;100630.16;;;24.57;35.37
12949;BME280;6539;49.476;8.484;2023-07-13T10:28:30;100637.06;;;24.81;34.71
12949;BME280;6539;49.476;8.484;2023-07-13T10:31:19;100628.84;;;24.78;34.57
12949;BME280;6539;49.476;8.484;2023-07-13T10:34:11;100633.03;;;24.88;35.02
12949;BME280;6539;49.476;8.484;2023-07-13T10:36:58;100625.13;;;25.65;34.00
12949;BME280;6539;49.476;8.484;2023-07-13T10:39:49;100631.78;;;26.27;33.49
12949;BME280;6539;49.476;8.484;2023-07-13T10:42:43;100622.41;;;26.80;31.12
12949;BME280;6539;49.476;8.484;2023-07-13T10:45:35;100625.22;;;26.74;30.96
12949;BME280;6539;49.476;8.484;2023-07-13T10:48:26;100617.78;;;26.55;31.37
12949;BME280;6539;49.476;8.484;2023-07-13T10:51:19;100618.28;;;26.70;31.19
12949;BME280;6539;49.476;8.484;2023-07-13T10:57:20;100627.75;;;26.61;30.02
12949;BME280;6539;49.476;8.484;2023-07-13T11:00:18;100630.59;;;27.11;28.39
12949;BME280;6539;49.476;8.484;2023-07-13T11:03:04;100613.66;;;27.28;27.98
12949;BME280;6539;49.476;8.484;2023-07-13T11:06:04;100620.00;;;27.61;27.91
12949;BME280;6539;49.476;8.484;2023-07-13T11:08:59;100619.81;;;28.11;27.57
12949;BME280;6539;49.476;8.484;2023-07-13T11:11:56;100617.44;;;28.26;27.83
12949;BME280;6539;49.476;8.484;2023-07-13T11:15:10;100619.78;;;28.93;27.09
12949;BME280;6539;49.476;8.484;2023-07-13T11:18:02;100620.09;;;29.67;26.29
12949;BME280;6539;49.476;8.484;2023-07-13T11:20:51;100616.00;;;28.49;26.78
12949;BME280;6539;49.476;8.484;2023-07-13T11:23:43;100618.94;;;27.70;28.21
12949;BME280;6539;49.476;8.484;2023-07-13T11:26:52;100611.91;;;26.80;29.38
12949;BME280;6539;49.476;8.484;2023-07-13T11:29:38;100612.16;;;27.04;29.53
12949;BME280;6539;49.476;8.484;2023-07-13T11:32:31;100618.38;;;27.88;28.01
12949;BME280;6539;49.476;8.484;2023-07-13T11:35:25;100614.53;;;27.80;28.54
12949;BME280;6539;49.476;8.484;2023-07-13T11:41:19;100619.81;;;28.11;27.79
12949;BME280;6539;49.476;8.484;2023-07-13T11:47:14;100604.88;;;28.62;27.52
12949;BME280;6539;49.476;8.484;2023-07-13T11:50:00;100607.34;;;28.36;28.00
12949;BME280;6539;49.476;8.484;2023-07-13T11:52:46;100603.00;;;29.30;26.69
12949;BME280;6539;49.476;8.484;2023-07-13T11:55:38;100603.31;;;30.49;25.33
12949;BME280;6539;49.476;8.484;2023-07-13T11:58:28;100604.31;;;30.83;23.36
12949;BME280;6539;49.476;8.484;2023-07-13T12:01:30;100601.59;;;30.91;23.10
12949;BME280;6539;49.476;8.484;2023-07-13T12:04:31;100607.47;;;31.77;21.49
12949;BME280;6539;49.476;8.484;2023-07-13T12:07:22;100608.47;;;32.26;21.46
12949;BME280;6539;49.476;8.484;2023-07-13T12:13:01;100594.66;;;31.05;23.50
12949;BME280;6539;49.476;8.484;2023-07-13T12:15:50;100612.47;;;31.32;23.34
12949;BME280;6539;49.476;8.484;2023-07-13T12:18:37;100605.81;;;31.82;22.93
12949;BME280;6539;49.476;8.484;2023-07-13T12:21:32;100605.50;;;31.85;22.72
12949;BME280;6539;49.476;8.484;2023-07-13T12:24:21;100606.47;;;31.22;23.79
12949;BME280;6539;49.476;8.484;2023-07-13T12:27:24;100610.44;;;30.88;24.23
12949;BME280;6539;49.476;8.484;2023-07-13T12:33:11;100627.34;;;30.05;25.52
12949;BME280;6539;49.476;8.484;2023-07-13T12:36:05;100626.06;;;29.10;26.09
12949;BME280;6539;49.476;8.484;2023-07-13T12:38:54;100621.94;;;28.46;27.22
12949;BME280;6539;49.476;8.484;2023-07-13T12:41:40;100620.72;;;28.36;26.53
12949;BME280;6539;49.476;8.484;2023-07-13T12:44:31;100619.34;;;28.07;27.19
12949;BME280;6539;49.476;8.484;2023-07-13T12:47:21;100616.38;;;27.77;27.83
12949;BME280;6539;49.476;8.484;2023-07-13T12:50:21;100626.78;;;28.51;27.10
12949;BME280;6539;49.476;8.484;2023-07-13T12:53:28;100621.38;;;28.53;26.08
12949;BME280;6539;49.476;8.484;2023-07-13T12:56:26;100623.31;;;28.69;26.16
12949;BME280;6539;49.476;8.484;2023-07-13T12:59:19;100628.03;;;28.61;26.28
12949;BME280;6539;49.476;8.484;2023-07-13T13:02:34;100636.59;;;28.39;26.90
12949;BME280;6539;49.476;8.484;2023-07-13T13:05:20;100639.78;;;28.24;26.67
12949;BME280;6539;49.476;8.484;2023-07-13T13:08:11;100639.84;;;28.54;26.27
12949;BME280;6539;49.476;8.484;2023-07-13T13:10:58;100636.19;;;28.64;26.57
12949;BME280;6539;49.476;8.484;2023-07-13T13:13:46;100620.56;;;28.63;26.57
12949;BME280;6539;49.476;8.484;2023-07-13T13:16:39;100620.75;;;28.30;26.86
12949;BME280;6539;49.476;8.484;2023-07-13T13:19:29;100641.69;;;27.94;27.69
12949;BME280;6539;49.476;8.484;2023-07-13T13:22:17;100628.53;;;27.45;28.55
12949;BME280;6539;49.476;8.484;2023-07-13T13:25:03;100628.81;;;27.36;28.99
12949;BME280;6539;49.476;8.484;2023-07-13T13:27:53;100634.41;;;27.58;29.26
12949;BME280;6539;49.476;8.484;2023-07-13T13:30:39;100635.13;;;27.64;28.44
12949;BME280;6539;49.476;8.484;2023-07-13T13:33:26;100628.72;;;27.69;28.19
12949;BME280;6539;49.476;8.484;2023-07-13T13:36:20;100637.06;;;28.08;27.51
12949;BME280;6539;49.476;8.484;2023-07-13T13:39:38;100640.56;;;28.25;26.90
12949;BME280;6539;49.476;8.484;2023-07-13T13:42:29;100634.97;;;28.14;26.93
12949;BME280;6539;49.476;8.484;2023-07-13T13:45:17;100636.63;;;27.81;27.59
12949;BME280;6539;49.476;8.484;2023-07-13T13:48:07;100634.28;;;27.85;27.48
12949;BME280;6539;49.476;8.484;2023-07-13T13:50:53;100641.78;;;27.72;27.65
12949;BME280;6539;49.476;8.484;2023-07-13T13:53:39;100629.47;;;27.75;27.85
12949;BME280;6539;49.476;8.484;2023-07-13T13:56:28;100625.97;;;28.15;27.75
12949;BME280;6539;49.476;8.484;2023-07-13T13:59:15;100630.84;;;28.15;27.67
12949;BME280;6539;49.476;8.484;2023-07-13T14:02:01;100624.59;;;27.75;28.55
12949;BME280;6539;49.476;8.484;2023-07-13T14:05:01;100626.34;;;27.78;28.69
12949;BME280;6539;49.476;8.484;2023-07-13T14:07:48;100637.84;;;27.91;28.97
12949;BME280;6539;49.476;8.484;2023-07-13T14:10:37;100634.19;;;28.13;28.97
12949;BME280;6539;49.476;8.484;2023-07-13T14:13:39;100628.81;;;28.10;28.78
12949;BME280;6539;49.476;8.484;2023-07-13T14:16:33;100634.00;;;28.00;29.07
12949;BME280;6539;49.476;8.484;2023-07-13T14:19:22;100635.75;;;28.09;29.10
12949;BME280;6539;49.476;8.484;2023-07-13T14:22:08;100635.16;;;28.21;28.65
12949;BME280;6539;49.476;8.484;2023-07-13T14:24:54;100632.59;;;28.23;29.05
12949;BME280;6539;49.476;8.484;2023-07-13T14:27:44;100633.16;;;28.16;28.95
12949;BME280;6539;49.476;8.484;2023-07-13T14:30:31;100630.63;;;28.07;29.10
12949;BME280;6539;49.476;8.484;2023-07-13T14:33:22;100636.06;;;27.88;29.34
12949;BME280;6539;49.476;8.484;2023-07-13T14:36:33;100631.22;;;27.78;29.11
12949;BME280;6539;49.476;8.484;2023-07-13T14:39:24;100639.78;;;27.50;30.10
12949;BME280;6539;49.476;8.484;2023-07-13T14:42:12;100636.47;;;27.46;29.63
12949;BME280;6539;49.476;8.484;2023-07-13T14:44:58;100630.09;;;27.24;30.01
12949;BME280;6539;49.476;8.484;2023-07-13T14:47:45;100628.81;;;27.19;30.07
12949;BME280;6539;49.476;8.484;2023-07-13T14:50:32;100629.78;;;27.33;29.76
12949;BME280;6539;49.476;8.484;2023-07-13T14:53:18;100625.22;;;27.35;29.66
12949;BME280;6539;49.476;8.484;2023-07-13T14:56:12;100626.66;;;27.69;28.94
12949;BME280;6539;49.476;8.484;2023-07-13T14:58:58;100634.75;;;27.95;28.68
12949;BME280;6539;49.476;8.484;2023-07-13T15:01:48;100626.50;;;28.08;27.93
12949;BME280;6539;49.476;8.484;2023-07-13T15:04:37;100622.97;;;27.91;28.16
12949;BME280;6539;49.476;8.484;2023-07-13T15:07:26;100618.72;;;28.25;28.05
12949;BME280;6539;49.476;8.484;2023-07-13T15:10:22;100619.22;;;28.70;27.79
12949;BME280;6539;49.476;8.484;2023-07-13T15:13:22;100622.13;;;28.89;27.30
12949;BME280;6539;49.476;8.484;2023-07-13T15:16:23;100619.56;;;29.69;26.19
12949;BME280;6539;49.476;8.484;2023-07-13T15:19:12;100621.72;;;30.43;25.30
12949;BME280;6539;49.476;8.484;2023-07-13T15:22:01;100617.78;;;29.90;25.13
12949;BME280;6539;49.476;8.484;2023-07-13T15:24:49;100620.47;;;29.04;26.03
12949;BME280;6539;49.476;8.484;2023-07-13T15:27:40;100611.47;;;28.35;26.67
12949;BME280;6539;49.476;8.484;2023-07-13T15:30:34;100613.31;;;27.70;27.37
12949;BME280;6539;49.476;8.484;2023-07-13T15:33:27;100610.78;;;27.61;28.23
12949;BME280;6539;49.476;8.484;2023-07-13T15:36:24;100611.13;;;28.09;27.65